createdAt,value
2018-11-25T00:01:37.303Z,96.80
2018-11-25T00:04:06.624Z,96.61
2018-11-25T00:06:35.505Z,96.56
2018-11-25T00:09:04.448Z,97.00
2018-11-25T00:11:34.274Z,97.15
2018-11-25T00:14:23.275Z,97.15
2018-11-25T00:16:51.913Z,96.81
2018-11-25T00:19:20.609Z,95.93
2018-11-25T00:21:49.265Z,96.06
2018-11-25T00:24:17.915Z,96.44
2018-11-25T00:26:46.604Z,96.69
2018-11-25T00:29:15.347Z,96.65
2018-11-25T00:31:44.280Z,97.01
2018-11-25T00:34:15.462Z,97.20
2018-11-25T00:36:44.633Z,97.34
2018-11-25T00:39:13.461Z,97.39
2018-11-25T00:41:42.381Z,97.40
2018-11-25T00:44:11.078Z,97.43
2018-11-25T00:46:39.863Z,97.16
2018-11-25T00:49:08.622Z,97.18
2018-11-25T00:51:58.044Z,97.33
2018-11-25T00:54:28.409Z,97.33
2018-11-25T00:56:58.045Z,96.93
2018-11-25T00:59:26.743Z,96.05
2018-11-25T01:01:55.441Z,96.02
2018-11-25T01:04:24.090Z,96.22
2018-11-25T01:06:52.856Z,96.40
2018-11-25T01:09:21.753Z,96.51
2018-11-25T01:11:51.630Z,96.75
2018-11-25T01:14:40.757Z,97.25
2018-11-25T01:17:09.443Z,96.73
2018-11-25T01:19:38.108Z,96.45
2018-11-25T01:22:06.793Z,96.28
2018-11-25T01:24:35.438Z,95.73
2018-11-25T01:27:04.309Z,96.18
2018-11-25T01:29:33.044Z,96.77
2018-11-25T01:32:02.030Z,97.24
2018-11-25T01:34:30.995Z,97.03
2018-11-25T01:37:19.738Z,97.10
2018-11-25T01:39:49.137Z,97.13
2018-11-25T01:42:18.035Z,97.20
2018-11-25T01:44:46.753Z,97.26
2018-11-25T01:47:15.453Z,97.06
2018-11-25T01:49:44.138Z,97.20
2018-11-25T01:52:12.815Z,97.45
2018-11-25T01:54:41.506Z,97.58
2018-11-25T01:59:44.818Z,98.12
2018-11-25T02:02:13.500Z,98.60
2018-11-25T02:04:43.139Z,98.61
2018-11-25T02:07:32.217Z,98.65
2018-11-25T02:10:01.351Z,98.67
2018-11-25T02:12:30.253Z,98.15
2018-11-25T02:14:59.180Z,98.15
2018-11-25T02:17:27.925Z,98.26
2018-11-25T02:19:56.660Z,98.45
2018-11-25T02:22:25.396Z,98.55
2018-11-25T02:24:54.342Z,97.95
2018-11-25T02:27:23.427Z,97.72
2018-11-25T02:29:53.601Z,97.86
2018-11-25T02:32:22.871Z,97.75
2018-11-25T02:34:51.621Z,98.08
2018-11-25T02:37:20.304Z,98.00
2018-11-25T02:40:11.696Z,98.11
2018-11-25T02:42:40.342Z,97.77
2018-11-25T02:45:28.889Z,97.75
2018-11-25T02:47:59.727Z,97.78
2018-11-25T02:50:29.438Z,97.94
2018-11-25T02:53:01.926Z,98.08
2018-11-25T02:55:30.560Z,98.37
2018-11-25T02:58:00.862Z,98.37
2018-11-25T03:00:29.775Z,98.65
2018-11-25T03:03:00.387Z,98.74
2018-11-25T03:05:48.666Z,98.95
2018-11-25T03:08:17.553Z,99.14
2018-11-25T03:10:46.211Z,99.23
2018-11-25T03:13:15.141Z,99.37
2018-11-25T03:15:43.876Z,99.45
2018-11-25T03:18:13.037Z,99.56
2018-11-25T03:20:43.116Z,99.63
2018-11-25T03:23:12.809Z,99.56
2018-11-25T03:25:41.487Z,99.71
2018-11-25T03:28:11.862Z,99.83
2018-11-25T03:30:40.453Z,99.86
2018-11-25T03:33:09.084Z,99.94
2018-11-25T03:35:37.775Z,100.00
2018-11-25T03:38:06.654Z,100.00
2018-11-25T03:40:35.437Z,100.00
2018-11-25T03:43:04.384Z,100.00
2018-11-25T03:45:33.268Z,100.00
2018-11-25T03:48:02.156Z,100.00
2018-11-25T03:50:31.010Z,100.00
2018-11-25T03:53:00.083Z,99.83
2018-11-25T03:55:48.273Z,99.46
2018-11-25T03:58:17.082Z,99.59
2018-11-25T04:01:24.471Z,99.81
2018-11-25T04:06:43.128Z,99.99
2018-11-25T04:09:12.296Z,100.00
2018-11-25T04:11:41.240Z,100.00
2018-11-25T04:14:10.127Z,100.00
2018-11-25T04:16:58.117Z,100.00
2018-11-25T04:19:26.761Z,100.00
2018-11-25T04:21:55.432Z,100.00
2018-11-25T04:24:24.118Z,100.00
2018-11-25T04:26:53.684Z,100.00
2018-11-25T04:29:42.899Z,99.59
2018-11-25T04:32:11.589Z,99.45
2018-11-25T04:34:40.278Z,99.52
2018-11-25T04:37:08.918Z,99.81
2018-11-25T04:39:37.592Z,100.00
2018-11-25T04:42:06.335Z,100.00
2018-11-25T04:44:35.042Z,100.00
2018-11-25T04:47:03.852Z,99.82
2018-11-25T04:49:32.500Z,99.36
2018-11-25T04:52:20.762Z,99.44
2018-11-25T04:54:51.611Z,99.47
2018-11-25T04:57:20.371Z,99.23
2018-11-25T04:59:49.138Z,99.19
2018-11-25T05:02:17.987Z,99.38
2018-11-25T05:04:46.765Z,99.73
2018-11-25T05:07:15.693Z,100.00
2018-11-25T05:09:44.550Z,100.00
2018-11-25T05:12:32.693Z,100.00
2018-11-25T05:15:02.997Z,100.00
2018-11-25T05:17:31.693Z,100.00
2018-11-25T05:20:00.593Z,100.00
2018-11-25T05:22:29.282Z,100.00
2018-11-25T05:24:57.925Z,100.00
2018-11-25T05:27:27.111Z,100.00
2018-11-25T05:29:55.766Z,100.00
2018-11-25T05:32:24.470Z,100.00
2018-11-25T05:34:53.211Z,100.00
2018-11-25T05:37:22.145Z,100.00
2018-11-25T05:39:51.055Z,100.00
2018-11-25T05:44:55.462Z,99.69
2018-11-25T05:47:24.225Z,99.61
2018-11-25T05:49:53.101Z,99.78
2018-11-25T05:52:22.485Z,100.00
2018-11-25T05:57:26.078Z,100.00
2018-11-25T05:59:54.908Z,100.00
2018-11-25T06:02:23.604Z,100.00
2018-11-25T06:04:52.279Z,100.00
2018-11-25T06:07:21.258Z,100.00
2018-11-25T06:10:10.123Z,100.00
2018-11-25T06:12:40.914Z,100.00
2018-11-25T06:15:28.879Z,100.00
2018-11-25T06:17:57.747Z,100.00
2018-11-25T06:20:26.598Z,100.00
2018-11-25T06:22:55.509Z,100.00
2018-11-25T06:25:24.265Z,100.00
2018-11-25T06:27:53.200Z,100.00
2018-11-25T06:30:22.103Z,100.00
2018-11-25T06:32:50.884Z,100.00
2018-11-25T06:35:39.578Z,100.00
2018-11-25T06:38:08.169Z,100.00
2018-11-25T06:40:36.855Z,100.00
2018-11-25T06:43:05.905Z,100.00
2018-11-25T06:45:35.346Z,100.00
2018-11-25T06:48:23.295Z,99.79
2018-11-25T06:50:53.666Z,99.72
2018-11-25T06:53:23.262Z,100.00
2018-11-25T06:55:51.952Z,100.00
2018-11-25T06:58:20.649Z,99.89
2018-11-25T07:00:49.364Z,99.54
2018-11-25T07:03:18.021Z,99.26
2018-11-25T07:05:46.705Z,99.63
2018-11-25T07:08:16.400Z,99.23
2018-11-25T07:10:46.635Z,99.44
2018-11-25T07:13:15.280Z,99.37
2018-11-25T07:15:43.981Z,99.05
2018-11-25T07:18:12.641Z,98.65
2018-11-25T07:20:41.282Z,98.77
2018-11-25T07:23:09.969Z,98.46
2018-11-25T07:28:29.195Z,98.13
2018-11-25T07:30:59.040Z,98.14
2018-11-25T07:33:27.830Z,98.59
2018-11-25T07:35:56.583Z,99.04
2018-11-25T07:38:25.337Z,99.54
2018-11-25T07:40:54.145Z,99.80
2018-11-25T07:43:22.841Z,100.00
2018-11-25T07:45:52.739Z,99.90
2018-11-25T07:51:15.939Z,99.83
2018-11-25T07:53:44.627Z,99.42
2018-11-25T07:56:13.271Z,99.08
2018-11-25T07:58:42.018Z,98.80
2018-11-25T08:01:10.867Z,98.70
2018-11-25T08:03:39.971Z,98.32
2018-11-25T08:06:29.183Z,98.04
2018-11-25T08:08:58.846Z,97.96
2018-11-25T08:11:27.888Z,98.23
2018-11-25T08:13:56.529Z,98.23
2018-11-25T08:16:25.409Z,98.24
2018-11-25T08:18:54.098Z,98.39
2018-11-25T08:21:23.032Z,98.90
2018-11-25T08:23:51.851Z,99.45
2018-11-25T08:26:20.930Z,99.63
2018-11-25T08:31:44.486Z,99.01
2018-11-25T08:34:13.386Z,97.65
2018-11-25T08:36:42.618Z,96.40
2018-11-25T08:39:30.354Z,95.69
2018-11-25T08:41:59.913Z,94.90
2018-11-25T08:44:48.503Z,94.20
2018-11-25T08:47:37.423Z,93.59
2018-11-25T08:50:27.235Z,93.09
2018-11-25T08:52:56.430Z,92.05
2018-11-25T08:55:26.152Z,91.33
2018-11-25T08:57:55.281Z,91.34
2018-11-25T09:00:24.931Z,90.73
2018-11-25T09:05:43.589Z,89.69
2018-11-25T09:08:12.872Z,89.34
2018-11-25T09:10:41.506Z,88.96
2018-11-25T09:13:10.270Z,88.57
2018-11-25T09:15:38.964Z,87.92
2018-11-25T09:18:07.862Z,87.62
2018-11-25T09:20:55.861Z,86.63
2018-11-25T09:23:24.588Z,86.62
2018-11-25T09:25:55.405Z,86.30
2018-11-25T09:28:24.929Z,85.32
2018-11-25T09:30:53.505Z,85.12
2018-11-25T09:33:22.145Z,84.48
2018-11-25T09:35:50.847Z,84.10
2018-11-25T09:38:19.497Z,83.55
2018-11-25T09:40:48.166Z,83.86
2018-11-25T09:43:16.853Z,83.89
2018-11-25T09:45:45.503Z,83.82
2018-11-25T09:48:14.189Z,82.94
2018-11-25T09:50:42.937Z,82.17
2018-11-25T09:53:31.979Z,81.71
2018-11-25T09:56:02.618Z,81.59
2018-11-25T09:58:31.559Z,80.52
2018-11-25T10:01:00.404Z,79.69
2018-11-25T10:03:29.352Z,79.10
2018-11-25T10:05:58.184Z,78.79
2018-11-25T10:08:27.076Z,78.22
2018-11-25T10:10:56.920Z,78.29
2018-11-25T10:16:19.857Z,77.24
2018-11-25T10:18:48.538Z,75.38
2018-11-25T10:21:17.232Z,74.60
2018-11-25T10:23:45.910Z,74.18
2018-11-25T10:26:14.663Z,73.77
2018-11-25T10:28:43.860Z,73.93
2018-11-25T10:34:06.815Z,72.19
2018-11-25T10:36:35.675Z,71.36
2018-11-25T10:39:05.139Z,70.87
2018-11-25T10:41:33.884Z,70.47
2018-11-25T10:44:02.794Z,69.27
2018-11-25T10:46:32.685Z,69.61
2018-11-25T10:49:40.268Z,69.15
2018-11-25T10:52:10.234Z,68.62
2018-11-25T10:54:39.061Z,66.77
2018-11-25T10:57:07.883Z,67.38
2018-11-25T10:59:36.777Z,66.53
2018-11-25T11:02:24.491Z,66.50
2018-11-25T11:05:12.352Z,66.04
2018-11-25T11:07:59.978Z,64.24
2018-11-25T11:10:28.766Z,64.14
2018-11-25T11:12:58.843Z,62.79
2018-11-25T11:15:28.553Z,62.93
2018-11-25T11:17:57.374Z,62.49
2018-11-25T11:20:26.035Z,61.47
2018-11-25T11:22:54.731Z,63.49
2018-11-25T11:25:23.603Z,62.86
2018-11-25T11:27:52.533Z,62.15
2018-11-25T11:30:21.428Z,61.40
2018-11-25T11:32:51.193Z,61.53
2018-11-25T11:38:48.381Z,62.87
2018-11-25T11:41:18.323Z,60.47
2018-11-25T11:43:47.061Z,60.61
2018-11-25T11:46:15.913Z,59.77
2018-11-25T11:48:44.649Z,59.41
2018-11-25T11:51:13.429Z,58.79
2018-11-25T11:53:42.260Z,59.72
2018-11-25T11:58:46.112Z,60.13
2018-11-25T12:04:09.765Z,60.39
2018-11-25T12:06:38.563Z,62.06
2018-11-25T12:09:09.829Z,62.19
2018-11-25T12:11:38.687Z,61.82
2018-11-25T12:14:07.441Z,61.55
2018-11-25T12:16:36.393Z,62.95
2018-11-25T12:19:06.347Z,62.68
2018-11-25T12:21:35.241Z,63.07
2018-11-25T12:24:23.563Z,63.49
2018-11-25T12:26:52.577Z,64.43
2018-11-25T12:29:41.159Z,64.71
2018-11-25T12:32:30.679Z,64.49
2018-11-25T12:35:19.292Z,64.62
2018-11-25T12:37:48.351Z,64.06
2018-11-25T12:40:36.410Z,63.99
2018-11-25T12:43:05.427Z,64.25
2018-11-25T12:45:34.307Z,64.03
2018-11-25T12:48:03.158Z,63.59
2018-11-25T12:50:32.060Z,64.10
2018-11-25T12:53:00.933Z,63.26
2018-11-25T12:55:29.882Z,62.97
2018-11-25T12:57:58.856Z,62.69
2018-11-25T13:00:47.685Z,62.13
2018-11-25T13:03:16.707Z,61.55
2018-11-25T13:05:46.592Z,62.34
2018-11-25T13:08:14.861Z,62.05
2018-11-25T13:10:44.577Z,62.41
2018-11-25T13:13:33.174Z,62.81
2018-11-25T13:16:01.952Z,63.38
2018-11-25T13:18:30.809Z,64.31
2018-11-25T13:20:59.723Z,65.26
2018-11-25T13:23:28.515Z,66.71
2018-11-25T13:25:57.413Z,68.13
2018-11-25T13:28:27.166Z,68.11
2018-11-25T13:30:55.973Z,68.39
2018-11-25T13:33:44.552Z,69.50
2018-11-25T13:36:14.176Z,71.18
2018-11-25T13:38:43.078Z,71.74
2018-11-25T13:41:12.229Z,72.81
2018-11-25T13:46:16.787Z,72.50
2018-11-25T13:48:45.667Z,73.53
2018-11-25T13:51:14.588Z,73.11
2018-11-25T13:53:43.450Z,73.19
2018-11-25T13:56:12.220Z,74.25
2018-11-25T13:58:41.502Z,74.28
2018-11-25T14:06:52.842Z,76.73
2018-11-25T14:09:22.215Z,76.70
2018-11-25T14:11:50.961Z,77.72
2018-11-25T14:14:19.822Z,78.20
2018-11-25T14:16:48.943Z,78.88
2018-11-25T14:19:37.684Z,79.73
2018-11-25T14:25:16.021Z,80.62
2018-11-25T14:27:45.061Z,82.08
2018-11-25T14:30:27.503Z,82.88
2018-11-25T14:32:56.180Z,82.88
2018-11-25T14:35:24.815Z,83.34
2018-11-25T14:37:53.497Z,83.44
2018-11-25T14:40:22.129Z,84.28
2018-11-25T14:42:51.380Z,84.79
2018-11-25T14:45:22.058Z,85.03
2018-11-25T14:47:50.726Z,85.33
2018-11-25T14:50:20.366Z,86.16
2018-11-25T14:52:52.839Z,86.40
2018-11-25T14:55:22.112Z,86.54
2018-11-25T14:58:11.251Z,87.05
2018-11-25T15:00:59.724Z,87.37
2018-11-25T15:03:30.379Z,87.72
2018-11-25T15:05:59.101Z,87.74
2018-11-25T15:08:28.160Z,88.13
2018-11-25T15:10:56.891Z,87.45
2018-11-25T15:13:25.683Z,87.89
2018-11-25T15:15:55.045Z,87.38
2018-11-25T15:18:43.096Z,88.03
2018-11-25T15:21:13.300Z,87.97
2018-11-25T15:23:42.310Z,88.40
2018-11-25T15:26:13.091Z,88.31
2018-11-25T15:28:41.745Z,88.62
2018-11-25T15:31:10.551Z,88.52
2018-11-25T15:33:39.426Z,88.90
2018-11-25T15:36:08.335Z,88.94
2018-11-25T15:38:37.125Z,89.02
2018-11-25T15:41:06.069Z,89.58
2018-11-25T15:43:34.859Z,89.97
2018-11-25T15:46:03.779Z,90.46
2018-11-25T15:48:33.157Z,90.43
2018-11-25T15:51:01.904Z,90.26
2018-11-25T15:53:30.553Z,90.23
2018-11-25T15:56:01.271Z,89.98
2018-11-25T15:58:29.931Z,90.04
2018-11-25T16:00:58.604Z,90.06
2018-11-25T16:03:27.269Z,90.48
2018-11-25T16:06:16.485Z,90.22
2018-11-25T16:08:45.300Z,90.08
2018-11-25T16:11:14.109Z,90.37
2018-11-25T16:13:42.884Z,90.47
2018-11-25T16:16:11.770Z,90.66
2018-11-25T16:18:40.667Z,90.25
2018-11-25T16:21:09.563Z,90.59
2018-11-25T16:23:38.455Z,90.11
2018-11-25T16:26:27.603Z,90.12
2018-11-25T16:28:58.747Z,90.03
2018-11-25T16:31:27.600Z,90.01
2018-11-25T16:33:56.398Z,90.56
2018-11-25T16:36:25.311Z,90.63
2018-11-25T16:38:54.122Z,90.41
2018-11-25T16:41:22.853Z,90.11
2018-11-25T16:43:51.736Z,90.18
2018-11-25T16:46:20.685Z,89.72
2018-11-25T16:48:49.416Z,89.96
2018-11-25T16:51:18.247Z,89.74
2018-11-25T16:53:47.148Z,89.83
2018-11-25T16:56:15.928Z,90.25
2018-11-25T16:58:44.722Z,90.14
2018-11-25T17:01:33.840Z,89.76
2018-11-25T17:04:24.367Z,89.83
2018-11-25T17:06:53.783Z,89.96
2018-11-25T17:09:22.521Z,90.50
2018-11-25T17:11:51.415Z,89.99
2018-11-25T17:14:20.343Z,89.83
2018-11-25T17:16:49.198Z,90.37
2018-11-25T17:19:37.653Z,90.43
2018-11-25T17:22:06.237Z,90.54
2018-11-25T17:24:35.159Z,90.62
2018-11-25T17:27:04.119Z,90.57
2018-11-25T17:29:33.700Z,90.15
2018-11-25T17:35:31.876Z,90.65
2018-11-25T17:38:00.852Z,90.65
2018-11-25T17:40:29.739Z,90.37
2018-11-25T17:42:58.629Z,90.33
2018-11-25T17:45:27.485Z,90.76
2018-11-25T17:47:56.371Z,90.31
2018-11-25T17:50:27.152Z,90.66
2018-11-25T17:59:13.629Z,90.42
2018-11-25T18:01:42.542Z,90.69
2018-11-25T18:04:11.287Z,91.12
2018-11-25T18:06:40.118Z,90.55
2018-11-25T18:09:12.086Z,90.57
2018-11-25T18:11:41.005Z,91.17
2018-11-25T18:14:10.528Z,90.87
2018-11-25T18:16:39.508Z,90.01
2018-11-25T18:19:35.811Z,90.46
2018-11-25T18:22:25.179Z,90.93
2018-11-25T18:24:54.106Z,90.78
2018-11-25T18:30:21.083Z,89.71
2018-11-25T18:32:50.940Z,90.78
2018-11-25T18:35:19.744Z,91.04
2018-11-25T18:37:48.588Z,90.38
2018-11-25T18:40:17.370Z,91.07
2018-11-25T18:45:21.742Z,90.21
2018-11-25T18:48:10.515Z,89.96
2018-11-25T18:51:19.890Z,89.36
2018-11-25T18:54:12.161Z,88.88
2018-11-25T18:56:59.944Z,88.92
2018-11-25T19:03:07.583Z,89.02
2018-11-25T19:06:00.672Z,88.48
2018-11-25T19:08:56.487Z,88.61
2018-11-25T19:11:45.444Z,88.45
2018-11-25T19:14:39.569Z,88.82
2018-11-25T19:17:30.708Z,89.31
2018-11-25T19:20:04.260Z,89.02
2018-11-25T19:22:52.918Z,89.10
2018-11-25T19:25:21.723Z,89.18
2018-11-25T19:27:50.798Z,89.53
2018-11-25T19:30:26.433Z,89.65
2018-11-25T19:32:51.469Z,89.42
2018-11-25T19:35:21.337Z,89.00
2018-11-25T19:37:50.904Z,89.17
2018-11-25T19:43:16.615Z,89.46
2018-11-25T19:46:26.022Z,89.33
2018-11-25T19:49:14.982Z,89.60
2018-11-25T19:55:43.749Z,89.39
2018-11-25T19:58:14.603Z,88.96
2018-11-25T20:01:04.362Z,88.99
2018-11-25T20:03:52.993Z,89.36
2018-11-25T20:07:04.024Z,89.47
2018-11-25T20:10:12.747Z,89.48
2018-11-25T20:13:05.292Z,89.25
2018-11-25T20:22:14.456Z,89.55
2018-11-25T20:25:02.416Z,90.22
2018-11-25T20:27:54.354Z,89.66
2018-11-25T20:30:46.332Z,89.44
2018-11-25T20:33:33.987Z,89.48
2018-11-25T20:36:02.650Z,89.53
2018-11-25T20:38:51.870Z,89.39
2018-11-25T20:41:20.529Z,89.58
2018-11-25T20:43:49.357Z,89.24
2018-11-25T20:46:37.009Z,89.27
2018-11-25T20:49:05.791Z,89.05
2018-11-25T20:51:53.565Z,89.11
2018-11-25T20:54:22.438Z,89.39
2018-11-25T20:56:51.367Z,89.23
2018-11-25T20:59:20.072Z,88.91
2018-11-25T21:01:56.498Z,89.22
2018-11-25T21:04:44.334Z,88.81
2018-11-25T21:07:12.993Z,89.06
2018-11-25T21:09:41.919Z,89.41
2018-11-25T21:12:10.764Z,89.44
2018-11-25T21:17:14.371Z,89.69
2018-11-25T21:19:43.166Z,89.89
2018-11-25T21:22:12.099Z,89.92
2018-11-25T21:24:41.060Z,90.56
2018-11-25T21:27:29.049Z,90.75
2018-11-25T21:29:57.883Z,90.94
2018-11-25T21:35:02.680Z,89.49
2018-11-25T21:37:31.363Z,89.23
2018-11-25T21:40:00.263Z,89.64
2018-11-25T21:42:29.600Z,89.80
2018-11-25T21:44:58.021Z,89.37
2018-11-25T21:47:26.812Z,89.82
2018-11-25T21:49:55.650Z,89.83
2018-11-25T21:52:24.560Z,90.12
2018-11-25T21:58:02.094Z,90.06
2018-11-25T22:00:31.874Z,90.23
2018-11-25T22:03:19.864Z,90.27
2018-11-25T22:05:48.698Z,90.33
2018-11-25T22:08:17.495Z,90.60
2018-11-25T22:10:46.445Z,91.05
2018-11-25T22:13:34.389Z,91.14
2018-11-25T22:16:05.373Z,91.29
2018-11-25T22:18:34.082Z,91.16
2018-11-25T22:21:02.874Z,91.79
2018-11-25T22:23:32.003Z,91.58
2018-11-25T22:26:00.757Z,91.51
2018-11-25T22:28:29.621Z,91.53
2018-11-25T22:41:57.567Z,92.22
2018-11-25T22:44:26.436Z,92.29
2018-11-25T22:49:29.979Z,92.31
2018-11-25T22:51:58.905Z,92.51
2018-11-25T22:54:27.835Z,92.96
2018-11-25T22:56:56.511Z,93.30
2018-11-25T22:59:26.558Z,93.96
2018-11-25T23:02:14.492Z,94.18
2018-11-25T23:05:21.669Z,93.68
2018-11-25T23:07:51.873Z,93.36
2018-11-25T23:10:41.014Z,93.73
2018-11-25T23:13:09.869Z,94.35
2018-11-25T23:15:38.719Z,94.92
2018-11-25T23:18:07.494Z,95.00
2018-11-25T23:26:59.555Z,95.45
2018-11-25T23:29:28.403Z,96.05
2018-11-25T23:31:57.240Z,95.64
2018-11-25T23:34:26.116Z,95.46
2018-11-25T23:37:15.395Z,95.79
2018-11-25T23:40:04.284Z,95.70
2018-11-25T23:42:53.522Z,95.69
2018-11-25T23:45:41.621Z,95.39
2018-11-25T23:48:10.451Z,95.65
2018-11-25T23:50:39.297Z,95.30
2018-11-25T23:53:08.228Z,95.60
2018-11-25T23:55:37.073Z,95.39
2018-11-25T23:58:06.005Z,95.47
